sensor_id;sensor_type;location;lat;lon;timestamp;temperature;humidity
17348;DHT22;8791;50.876;4.342;2023-06-14T00:00:48;22.30;79.30
17348;DHT22;8791;50.876;4.342;2023-06-14T00:03:15;22.40;79.40
17348;DHT22;8791;50.876;4.342;2023-06-14T00:05:43;22.40;79.20
17348;DHT22;8791;50.876;4.342;2023-06-14T00:08:12;22.30;79.50
17348;DHT22;8791;50.876;4.342;2023-06-14T00:10:39;22.20;79.70
17348;DHT22;8791;50.876;4.342;2023-06-14T00:13:09;22.20;80.20
17348;DHT22;8791;50.876;4.342;2023-06-14T00:15:36;22.10;80.70
17348;DHT22;8791;50.876;4.342;2023-06-14T00:18:03;22.00;81.00
17348;DHT22;8791;50.876;4.342;2023-06-14T00:20:32;22.10;81.00
17348;DHT22;8791;50.876;4.342;2023-06-14T00:22:59;22.10;81.30
17348;DHT22;8791;50.876;4.342;2023-06-14T00:25:26;22.10;81.30
17348;DHT22;8791;50.876;4.342;2023-06-14T00:27:53;22.00;81.60
17348;DHT22;8791;50.876;4.342;2023-06-14T00:30:21;22.10;81.60
17348;DHT22;8791;50.876;4.342;2023-06-14T00:32:48;22.10;81.70
17348;DHT22;8791;50.876;4.342;2023-06-14T00:35:15;22.00;81.60
17348;DHT22;8791;50.876;4.342;2023-06-14T00:37:42;22.00;82.00
17348;DHT22;8791;50.876;4.342;2023-06-14T00:40:09;22.00;82.20
17348;DHT22;8791;50.876;4.342;2023-06-14T00:42:36;22.10;82.00
17348;DHT22;8791;50.876;4.342;2023-06-14T00:45:03;22.00;82.30
17348;DHT22;8791;50.876;4.342;2023-06-14T00:47:32;21.90;82.80
17348;DHT22;8791;50.876;4.342;2023-06-14T00:49:59;21.90;83.50
17348;DHT22;8791;50.876;4.342;2023-06-14T00:52:30;21.80;83.40
17348;DHT22;8791;50.876;4.342;2023-06-14T00:54:58;21.80;83.80
17348;DHT22;8791;50.876;4.342;2023-06-14T00:57:25;21.90;83.70
17348;DHT22;8791;50.876;4.342;2023-06-14T00:59:53;21.90;83.90
17348;DHT22;8791;50.876;4.342;2023-06-14T01:02:21;21.90;83.80
17348;DHT22;8791;50.876;4.342;2023-06-14T01:04:52;22.00;83.40
17348;DHT22;8791;50.876;4.342;2023-06-14T01:07:25;22.00;83.50
17348;DHT22;8791;50.876;4.342;2023-06-14T01:10:03;21.80;84.20
17348;DHT22;8791;50.876;4.342;2023-06-14T01:12:38;21.70;84.60
17348;DHT22;8791;50.876;4.342;2023-06-14T01:15:07;21.70;85.10
17348;DHT22;8791;50.876;4.342;2023-06-14T01:17:35;21.70;85.20
17348;DHT22;8791;50.876;4.342;2023-06-14T01:20:10;21.60;85.00
17348;DHT22;8791;50.876;4.342;2023-06-14T01:22:50;21.50;86.10
17348;DHT22;8791;50.876;4.342;2023-06-14T01:25:17;21.50;86.80
17348;DHT22;8791;50.876;4.342;2023-06-14T01:27:47;21.50;86.80
17348;DHT22;8791;50.876;4.342;2023-06-14T01:30:16;21.50;87.30
17348;DHT22;8791;50.876;4.342;2023-06-14T01:32:44;21.40;88.20
17348;DHT22;8791;50.876;4.342;2023-06-14T01:35:11;21.40;88.00
17348;DHT22;8791;50.876;4.342;2023-06-14T01:37:39;21.30;88.70
17348;DHT22;8791;50.876;4.342;2023-06-14T01:40:10;21.30;89.20
17348;DHT22;8791;50.876;4.342;2023-06-14T01:42:38;21.20;89.60
17348;DHT22;8791;50.876;4.342;2023-06-14T01:45:06;21.30;89.80
17348;DHT22;8791;50.876;4.342;2023-06-14T01:47:34;21.30;89.70
17348;DHT22;8791;50.876;4.342;2023-06-14T01:50:01;21.10;90.20
17348;DHT22;8791;50.876;4.342;2023-06-14T01:52:28;21.10;90.40
17348;DHT22;8791;50.876;4.342;2023-06-14T01:54:55;21.00;90.70
17348;DHT22;8791;50.876;4.342;2023-06-14T01:57:25;21.00;90.90
17348;DHT22;8791;50.876;4.342;2023-06-14T01:59:52;20.90;91.10
17348;DHT22;8791;50.876;4.342;2023-06-14T02:02:20;20.90;91.20
17348;DHT22;8791;50.876;4.342;2023-06-14T02:04:46;20.90;91.30
17348;DHT22;8791;50.876;4.342;2023-06-14T02:07:14;20.80;91.70
17348;DHT22;8791;50.876;4.342;2023-06-14T02:09:41;20.60;92.20
17348;DHT22;8791;50.876;4.342;2023-06-14T02:12:08;20.70;92.40
17348;DHT22;8791;50.876;4.342;2023-06-14T02:14:37;20.60;92.50
17348;DHT22;8791;50.876;4.342;2023-06-14T02:17:05;20.50;92.90
17348;DHT22;8791;50.876;4.342;2023-06-14T02:19:32;20.50;93.20
17348;DHT22;8791;50.876;4.342;2023-06-14T02:21:59;20.60;93.20
17348;DHT22;8791;50.876;4.342;2023-06-14T02:24:26;20.50;93.60
17348;DHT22;8791;50.876;4.342;2023-06-14T02:26:53;20.50;93.80
17348;DHT22;8791;50.876;4.342;2023-06-14T02:29:20;20.50;93.90
17348;DHT22;8791;50.876;4.342;2023-06-14T02:31:48;20.60;93.90
17348;DHT22;8791;50.876;4.342;2023-06-14T02:34:15;20.50;94.20
17348;DHT22;8791;50.876;4.342;2023-06-14T02:36:43;20.30;94.80
17348;DHT22;8791;50.876;4.342;2023-06-14T02:39:10;20.20;95.40
17348;DHT22;8791;50.876;4.342;2023-06-14T02:41:38;20.30;95.70
17348;DHT22;8791;50.876;4.342;2023-06-14T02:44:05;20.30;95.80
17348;DHT22;8791;50.876;4.342;2023-06-14T02:46:32;20.30;96.10
17348;DHT22;8791;50.876;4.342;2023-06-14T02:49:00;20.20;96.50
17348;DHT22;8791;50.876;4.342;2023-06-14T02:51:27;20.20;97.10
17348;DHT22;8791;50.876;4.342;2023-06-14T02:53:54;20.20;97.30
17348;DHT22;8791;50.876;4.342;2023-06-14T02:56:21;20.10;97.90
17348;DHT22;8791;50.876;4.342;2023-06-14T02:58:48;20.00;98.60
17348;DHT22;8791;50.876;4.342;2023-06-14T03:01:16;20.00;99.20
17348;DHT22;8791;50.876;4.342;2023-06-14T03:03:43;20.00;99.60
17348;DHT22;8791;50.876;4.342;2023-06-14T03:06:11;20.00;99.90
17348;DHT22;8791;50.876;4.342;2023-06-14T03:08:39;19.90;99.90
17348;DHT22;8791;50.876;4.342;2023-06-14T03:11:07;19.90;99.90
17348;DHT22;8791;50.876;4.342;2023-06-14T03:13:34;19.90;99.90
17348;DHT22;8791;50.876;4.342;2023-06-14T03:16:01;19.90;99.90
17348;DHT22;8791;50.876;4.342;2023-06-14T03:18:29;19.80;99.90
17348;DHT22;8791;50.876;4.342;2023-06-14T03:21:00;19.80;99.90
17348;DHT22;8791;50.876;4.342;2023-06-14T03:23:30;19.70;99.90
17348;DHT22;8791;50.876;4.342;2023-06-14T03:25:57;19.70;99.90
17348;DHT22;8791;50.876;4.342;2023-06-14T03:28:24;19.70;99.90
17348;DHT22;8791;50.876;4.342;2023-06-14T03:30:51;19.60;99.90
17348;DHT22;8791;50.876;4.342;2023-06-14T03:33:18;19.60;99.90
17348;DHT22;8791;50.876;4.342;2023-06-14T03:35:45;19.60;99.90
17348;DHT22;8791;50.876;4.342;2023-06-14T03:38:12;19.60;99.90
17348;DHT22;8791;50.876;4.342;2023-06-14T03:40:40;19.60;99.90
17348;DHT22;8791;50.876;4.342;2023-06-14T03:43:07;19.70;99.90
17348;DHT22;8791;50.876;4.342;2023-06-14T03:45:34;19.70;99.90
17348;DHT22;8791;50.876;4.342;2023-06-14T03:48:01;19.50;99.90
17348;DHT22;8791;50.876;4.342;2023-06-14T03:50:28;19.50;99.90
17348;DHT22;8791;50.876;4.342;2023-06-14T03:52:55;19.50;99.90
17348;DHT22;8791;50.876;4.342;2023-06-14T03:55:22;19.50;99.90
17348;DHT22;8791;50.876;4.342;2023-06-14T03:57:52;19.40;99.90
17348;DHT22;8791;50.876;4.342;2023-06-14T04:00:19;19.40;99.90
17348;DHT22;8791;50.876;4.342;2023-06-14T04:02:45;19.30;99.90
17348;DHT22;8791;50.876;4.342;2023-06-14T04:05:13;19.30;99.90
17348;DHT22;8791;50.876;4.342;2023-06-14T04:07:42;19.30;99.90
17348;DHT22;8791;50.876;4.342;2023-06-14T04:10:11;19.20;99.90
17348;DHT22;8791;50.876;4.342;2023-06-14T04:12:38;19.20;99.90
17348;DHT22;8791;50.876;4.342;2023-06-14T04:15:07;19.10;99.90
17348;DHT22;8791;50.876;4.342;2023-06-14T04:17:35;19.20;99.90
17348;DHT22;8791;50.876;4.342;2023-06-14T04:20:03;19.20;99.90
17348;DHT22;8791;50.876;4.342;2023-06-14T04:22:31;19.40;99.90
17348;DHT22;8791;50.876;4.342;2023-06-14T04:24:58;19.60;99.90
17348;DHT22;8791;50.876;4.342;2023-06-14T04:27:26;20.00;99.90
17348;DHT22;8791;50.876;4.342;2023-06-14T04:29:54;20.30;99.90
17348;DHT22;8791;50.876;4.342;2023-06-14T04:32:25;20.60;99.90
17348;DHT22;8791;50.876;4.342;2023-06-14T04:34:53;20.80;99.90
17348;DHT22;8791;50.876;4.342;2023-06-14T04:37:20;21.20;99.90
17348;DHT22;8791;50.876;4.342;2023-06-14T04:39:47;21.50;99.90
17348;DHT22;8791;50.876;4.342;2023-06-14T04:42:14;21.60;99.90
17348;DHT22;8791;50.876;4.342;2023-06-14T04:44:42;21.50;99.90
17348;DHT22;8791;50.876;4.342;2023-06-14T04:47:09;21.50;99.90
17348;DHT22;8791;50.876;4.342;2023-06-14T04:49:38;21.70;99.90
17348;DHT22;8791;50.876;4.342;2023-06-14T04:52:06;21.70;99.90
17348;DHT22;8791;50.876;4.342;2023-06-14T04:54:33;21.70;99.90
17348;DHT22;8791;50.876;4.342;2023-06-14T04:57:03;22.10;99.90
17348;DHT22;8791;50.876;4.342;2023-06-14T04:59:30;22.00;99.90
17348;DHT22;8791;50.876;4.342;2023-06-14T05:01:59;22.10;99.90
17348;DHT22;8791;50.876;4.342;2023-06-14T05:04:26;22.20;99.90
17348;DHT22;8791;50.876;4.342;2023-06-14T05:06:54;22.40;99.90
17348;DHT22;8791;50.876;4.342;2023-06-14T05:09:22;22.60;99.80
17348;DHT22;8791;50.876;4.342;2023-06-14T05:11:49;22.80;98.90
17348;DHT22;8791;50.876;4.342;2023-06-14T05:14:16;22.70;98.70
17348;DHT22;8791;50.876;4.342;2023-06-14T05:16:43;22.70;98.40
17348;DHT22;8791;50.876;4.342;2023-06-14T05:19:10;22.70;98.30
17348;DHT22;8791;50.876;4.342;2023-06-14T05:21:37;23.00;98.10
17348;DHT22;8791;50.876;4.342;2023-06-14T05:24:06;23.00;97.80
17348;DHT22;8791;50.876;4.342;2023-06-14T05:26:34;22.90;97.60
17348;DHT22;8791;50.876;4.342;2023-06-14T05:29:01;23.10;97.50
17348;DHT22;8791;50.876;4.342;2023-06-14T05:31:28;23.10;97.40
17348;DHT22;8791;50.876;4.342;2023-06-14T05:33:55;22.80;97.50
17348;DHT22;8791;50.876;4.342;2023-06-14T05:36:22;22.40;97.90
17348;DHT22;8791;50.876;4.342;2023-06-14T05:38:49;22.10;98.70
17348;DHT22;8791;50.876;4.342;2023-06-14T05:41:24;21.70;99.90
17348;DHT22;8791;50.876;4.342;2023-06-14T05:43:51;21.50;99.90
17348;DHT22;8791;50.876;4.342;2023-06-14T05:46:18;21.20;99.90
17348;DHT22;8791;50.876;4.342;2023-06-14T05:48:47;20.90;99.90
17348;DHT22;8791;50.876;4.342;2023-06-14T05:51:14;20.80;99.90
17348;DHT22;8791;50.876;4.342;2023-06-14T05:53:44;20.70;99.90
17348;DHT22;8791;50.876;4.342;2023-06-14T05:56:11;20.80;99.90
17348;DHT22;8791;50.876;4.342;2023-06-14T05:58:39;20.70;99.90
17348;DHT22;8791;50.876;4.342;2023-06-14T06:01:06;20.70;99.90
17348;DHT22;8791;50.876;4.342;2023-06-14T06:03:33;20.60;99.90
17348;DHT22;8791;50.876;4.342;2023-06-14T06:05:59;20.50;99.90
17348;DHT22;8791;50.876;4.342;2023-06-14T06:08:26;20.60;99.90
17348;DHT22;8791;50.876;4.342;2023-06-14T06:10:53;20.60;99.90
17348;DHT22;8791;50.876;4.342;2023-06-14T06:13:20;20.70;99.90
17348;DHT22;8791;50.876;4.342;2023-06-14T06:15:48;20.80;99.90
17348;DHT22;8791;50.876;4.342;2023-06-14T06:18:16;20.80;99.90
17348;DHT22;8791;50.876;4.342;2023-06-14T06:20:43;20.90;99.90
17348;DHT22;8791;50.876;4.342;2023-06-14T06:23:12;21.10;99.90
17348;DHT22;8791;50.876;4.342;2023-06-14T06:25:39;21.00;99.90
17348;DHT22;8791;50.876;4.342;2023-06-14T06:28:07;21.10;99.90
17348;DHT22;8791;50.876;4.342;2023-06-14T06:30:34;21.20;99.90
17348;DHT22;8791;50.876;4.342;2023-06-14T06:33:03;21.20;99.90
17348;DHT22;8791;50.876;4.342;2023-06-14T06:35:30;21.20;99.90
17348;DHT22;8791;50.876;4.342;2023-06-14T06:37:58;21.40;99.90
17348;DHT22;8791;50.876;4.342;2023-06-14T06:40:25;21.40;99.90
17348;DHT22;8791;50.876;4.342;2023-06-14T06:42:52;21.50;99.90
17348;DHT22;8791;50.876;4.342;2023-06-14T06:45:20;21.70;99.90
17348;DHT22;8791;50.876;4.342;2023-06-14T06:47:48;21.80;99.90
17348;DHT22;8791;50.876;4.342;2023-06-14T06:50:18;21.90;99.90
17348;DHT22;8791;50.876;4.342;2023-06-14T06:52:45;21.90;99.90
17348;DHT22;8791;50.876;4.342;2023-06-14T06:55:12;21.90;99.90
17348;DHT22;8791;50.876;4.342;2023-06-14T06:57:39;22.00;99.90
17348;DHT22;8791;50.876;4.342;2023-06-14T07:00:07;22.20;99.90
17348;DHT22;8791;50.876;4.342;2023-06-14T07:02:35;22.20;99.90
17348;DHT22;8791;50.876;4.342;2023-06-14T07:05:02;22.20;99.90
17348;DHT22;8791;50.876;4.342;2023-06-14T07:07:31;22.10;99.90
17348;DHT22;8791;50.876;4.342;2023-06-14T07:09:58;22.20;99.90
17348;DHT22;8791;50.876;4.342;2023-06-14T07:12:26;22.30;99.90
17348;DHT22;8791;50.876;4.342;2023-06-14T07:14:53;22.50;99.90
17348;DHT22;8791;50.876;4.342;2023-06-14T07:17:19;22.70;99.90
17348;DHT22;8791;50.876;4.342;2023-06-14T07:19:46;22.80;99.90
17348;DHT22;8791;50.876;4.342;2023-06-14T07:22:13;22.80;99.90
17348;DHT22;8791;50.876;4.342;2023-06-14T07:24:41;22.80;99.90
17348;DHT22;8791;50.876;4.342;2023-06-14T07:27:08;22.80;99.90
17348;DHT22;8791;50.876;4.342;2023-06-14T07:29:36;22.90;99.90
17348;DHT22;8791;50.876;4.342;2023-06-14T07:32:03;23.00;99.90
17348;DHT22;8791;50.876;4.342;2023-06-14T07:34:30;22.90;99.90
17348;DHT22;8791;50.876;4.342;2023-06-14T07:36:57;23.00;99.10
17348;DHT22;8791;50.876;4.342;2023-06-14T07:39:24;22.90;99.30
17348;DHT22;8791;50.876;4.342;2023-06-14T07:41:52;23.10;99.10
17348;DHT22;8791;50.876;4.342;2023-06-14T07:44:19;23.10;98.70
17348;DHT22;8791;50.876;4.342;2023-06-14T07:46:46;23.10;98.40
17348;DHT22;8791;50.876;4.342;2023-06-14T07:49:14;23.10;98.20
17348;DHT22;8791;50.876;4.342;2023-06-14T07:51:41;23.10;97.90
17348;DHT22;8791;50.876;4.342;2023-06-14T07:54:09;23.20;97.40
17348;DHT22;8791;50.876;4.342;2023-06-14T07:56:36;23.30;97.10
17348;DHT22;8791;50.876;4.342;2023-06-14T07:59:04;23.40;97.60
17348;DHT22;8791;50.876;4.342;2023-06-14T08:01:33;23.60;98.00
17348;DHT22;8791;50.876;4.342;2023-06-14T08:04:00;23.70;97.50
17348;DHT22;8791;50.876;4.342;2023-06-14T08:06:26;23.70;98.00
17348;DHT22;8791;50.876;4.342;2023-06-14T08:08:53;23.80;97.00
17348;DHT22;8791;50.876;4.342;2023-06-14T08:11:20;23.90;96.80
17348;DHT22;8791;50.876;4.342;2023-06-14T08:13:49;24.00;96.50
17348;DHT22;8791;50.876;4.342;2023-06-14T08:16:17;24.10;96.80
17348;DHT22;8791;50.876;4.342;2023-06-14T08:18:44;24.10;96.90
17348;DHT22;8791;50.876;4.342;2023-06-14T08:21:11;24.10;95.90
17348;DHT22;8791;50.876;4.342;2023-06-14T08:23:40;24.20;97.20
17348;DHT22;8791;50.876;4.342;2023-06-14T08:26:08;24.30;96.30
17348;DHT22;8791;50.876;4.342;2023-06-14T08:28:35;24.40;94.50
17348;DHT22;8791;50.876;4.342;2023-06-14T08:31:02;24.60;94.10
17348;DHT22;8791;50.876;4.342;2023-06-14T08:33:30;24.40;94.60
17348;DHT22;8791;50.876;4.342;2023-06-14T08:35:59;24.60;94.00
17348;DHT22;8791;50.876;4.342;2023-06-14T08:38:26;24.60;93.80
17348;DHT22;8791;50.876;4.342;2023-06-14T08:40:57;24.70;94.60
17348;DHT22;8791;50.876;4.342;2023-06-14T08:43:24;24.80;95.70
17348;DHT22;8791;50.876;4.342;2023-06-14T08:45:56;24.80;95.00
17348;DHT22;8791;50.876;4.342;2023-06-14T08:48:26;24.80;95.40
17348;DHT22;8791;50.876;4.342;2023-06-14T08:50:56;24.90;95.30
17348;DHT22;8791;50.876;4.342;2023-06-14T08:53:28;25.00;94.30
17348;DHT22;8791;50.876;4.342;2023-06-14T08:55:57;25.00;93.70
17348;DHT22;8791;50.876;4.342;2023-06-14T08:58:27;25.00;93.70
17348;DHT22;8791;50.876;4.342;2023-06-14T09:00:55;25.00;94.10
17348;DHT22;8791;50.876;4.342;2023-06-14T09:03:22;25.00;93.50
17348;DHT22;8791;50.876;4.342;2023-06-14T09:05:57;25.00;94.40
17348;DHT22;8791;50.876;4.342;2023-06-14T09:08:24;25.00;94.70
17348;DHT22;8791;50.876;4.342;2023-06-14T09:10:51;25.10;94.80
17348;DHT22;8791;50.876;4.342;2023-06-14T09:13:18;25.20;95.20
17348;DHT22;8791;50.876;4.342;2023-06-14T09:15:45;25.40;94.70
17348;DHT22;8791;50.876;4.342;2023-06-14T09:18:12;25.30;94.60
17348;DHT22;8791;50.876;4.342;2023-06-14T09:20:40;25.30;92.90
17348;DHT22;8791;50.876;4.342;2023-06-14T09:23:08;25.20;93.60
17348;DHT22;8791;50.876;4.342;2023-06-14T09:25:42;25.20;92.50
17348;DHT22;8791;50.876;4.342;2023-06-14T09:28:10;25.20;92.40
17348;DHT22;8791;50.876;4.342;2023-06-14T09:30:37;25.20;92.60
17348;DHT22;8791;50.876;4.342;2023-06-14T09:33:05;25.30;92.10
17348;DHT22;8791;50.876;4.342;2023-06-14T09:35:32;25.20;92.60
17348;DHT22;8791;50.876;4.342;2023-06-14T09:37:59;25.10;93.30
17348;DHT22;8791;50.876;4.342;2023-06-14T09:48:13;25.70;91.80
17348;DHT22;8791;50.876;4.342;2023-06-14T09:50:45;25.80;91.30
17348;DHT22;8791;50.876;4.342;2023-06-14T09:53:12;25.80;92.40
17348;DHT22;8791;50.876;4.342;2023-06-14T09:55:41;25.80;91.80
17348;DHT22;8791;50.876;4.342;2023-06-14T09:58:10;25.80;92.20
17348;DHT22;8791;50.876;4.342;2023-06-14T10:00:39;26.00;90.90
17348;DHT22;8791;50.876;4.342;2023-06-14T10:03:16;25.90;90.10
17348;DHT22;8791;50.876;4.342;2023-06-14T10:05:45;25.90;89.50
17348;DHT22;8791;50.876;4.342;2023-06-14T10:08:15;25.90;90.00
17348;DHT22;8791;50.876;4.342;2023-06-14T10:10:43;25.90;87.90
17348;DHT22;8791;50.876;4.342;2023-06-14T10:13:11;25.70;88.90
17348;DHT22;8791;50.876;4.342;2023-06-14T10:15:42;25.60;89.10
17348;DHT22;8791;50.876;4.342;2023-06-14T10:18:21;25.80;90.10
17348;DHT22;8791;50.876;4.342;2023-06-14T10:20:57;26.00;90.00
17348;DHT22;8791;50.876;4.342;2023-06-14T10:23:27;26.10;84.40
17348;DHT22;8791;50.876;4.342;2023-06-14T10:25:57;26.00;82.10
17348;DHT22;8791;50.876;4.342;2023-06-14T10:28:25;25.80;80.70
17348;DHT22;8791;50.876;4.342;2023-06-14T10:31:05;25.90;81.60
17348;DHT22;8791;50.876;4.342;2023-06-14T10:33:34;26.00;83.70
17348;DHT22;8791;50.876;4.342;2023-06-14T10:36:27;26.10;82.30
17348;DHT22;8791;50.876;4.342;2023-06-14T10:39:00;26.20;82.10
17348;DHT22;8791;50.876;4.342;2023-06-14T10:41:28;26.10;82.00
17348;DHT22;8791;50.876;4.342;2023-06-14T10:44:40;26.20;80.30
17348;DHT22;8791;50.876;4.342;2023-06-14T10:47:19;26.30;77.40
17348;DHT22;8791;50.876;4.342;2023-06-14T10:49:51;26.30;76.60
17348;DHT22;8791;50.876;4.342;2023-06-14T10:52:22;26.20;77.80
17348;DHT22;8791;50.876;4.342;2023-06-14T10:54:59;26.20;78.20
17348;DHT22;8791;50.876;4.342;2023-06-14T10:57:26;26.30;76.50
17348;DHT22;8791;50.876;4.342;2023-06-14T10:59:54;26.30;77.20
17348;DHT22;8791;50.876;4.342;2023-06-14T11:02:46;26.30;75.90
17348;DHT22;8791;50.876;4.342;2023-06-14T11:05:24;26.20;77.70
17348;DHT22;8791;50.876;4.342;2023-06-14T11:08:04;26.40;77.90
17348;DHT22;8791;50.876;4.342;2023-06-14T11:10:40;26.50;77.30
17348;DHT22;8791;50.876;4.342;2023-06-14T11:13:07;26.70;77.10
17348;DHT22;8791;50.876;4.342;2023-06-14T11:15:36;26.90;77.30
17348;DHT22;8791;50.876;4.342;2023-06-14T11:18:04;27.00;75.00
17348;DHT22;8791;50.876;4.342;2023-06-14T11:20:33;26.90;73.30
17348;DHT22;8791;50.876;4.342;2023-06-14T11:23:01;26.90;72.20
17348;DHT22;8791;50.876;4.342;2023-06-14T11:25:28;26.90;70.30
17348;DHT22;8791;50.876;4.342;2023-06-14T11:27:56;26.70;71.00
17348;DHT22;8791;50.876;4.342;2023-06-14T11:30:23;26.50;71.00
17348;DHT22;8791;50.876;4.342;2023-06-14T11:32:51;26.70;71.30
17348;DHT22;8791;50.876;4.342;2023-06-14T11:35:19;26.60;71.90
17348;DHT22;8791;50.876;4.342;2023-06-14T11:37:48;26.60;71.80
17348;DHT22;8791;50.876;4.342;2023-06-14T11:40:15;26.60;73.80
17348;DHT22;8791;50.876;4.342;2023-06-14T11:42:42;26.60;72.10
17348;DHT22;8791;50.876;4.342;2023-06-14T11:45:10;26.60;72.30
17348;DHT22;8791;50.876;4.342;2023-06-14T11:47:38;26.70;72.40
17348;DHT22;8791;50.876;4.342;2023-06-14T11:50:07;26.80;73.20
17348;DHT22;8791;50.876;4.342;2023-06-14T11:52:37;26.80;72.00
17348;DHT22;8791;50.876;4.342;2023-06-14T11:55:06;26.70;72.10
17348;DHT22;8791;50.876;4.342;2023-06-14T11:57:34;26.70;72.30
17348;DHT22;8791;50.876;4.342;2023-06-14T12:00:03;26.90;73.10
17348;DHT22;8791;50.876;4.342;2023-06-14T12:02:33;27.00;71.10
17348;DHT22;8791;50.876;4.342;2023-06-14T12:05:05;26.80;70.60
17348;DHT22;8791;50.876;4.342;2023-06-14T12:07:33;26.90;69.50
17348;DHT22;8791;50.876;4.342;2023-06-14T12:10:08;26.70;69.10
17348;DHT22;8791;50.876;4.342;2023-06-14T12:12:37;26.60;69.80
17348;DHT22;8791;50.876;4.342;2023-06-14T12:15:05;26.70;70.00
17348;DHT22;8791;50.876;4.342;2023-06-14T12:17:33;26.80;68.80
17348;DHT22;8791;50.876;4.342;2023-06-14T12:20:05;26.90;68.50
17348;DHT22;8791;50.876;4.342;2023-06-14T12:22:36;26.80;69.00
17348;DHT22;8791;50.876;4.342;2023-06-14T12:25:03;26.90;69.00
17348;DHT22;8791;50.876;4.342;2023-06-14T12:27:32;27.00;67.10
17348;DHT22;8791;50.876;4.342;2023-06-14T12:30:00;26.80;67.00
17348;DHT22;8791;50.876;4.342;2023-06-14T12:32:27;26.90;68.70
17348;DHT22;8791;50.876;4.342;2023-06-14T12:34:54;27.00;68.10
17348;DHT22;8791;50.876;4.342;2023-06-14T12:37:21;26.90;67.00
17348;DHT22;8791;50.876;4.342;2023-06-14T12:39:48;27.00;67.20
17348;DHT22;8791;50.876;4.342;2023-06-14T12:42:16;27.00;67.30
17348;DHT22;8791;50.876;4.342;2023-06-14T12:44:45;27.10;67.50
17348;DHT22;8791;50.876;4.342;2023-06-14T12:47:12;27.20;66.70
17348;DHT22;8791;50.876;4.342;2023-06-14T12:49:39;27.10;65.60
17348;DHT22;8791;50.876;4.342;2023-06-14T12:52:08;27.20;66.40
17348;DHT22;8791;50.876;4.342;2023-06-14T12:54:35;27.20;65.10
17348;DHT22;8791;50.876;4.342;2023-06-14T12:57:02;26.90;67.80
17348;DHT22;8791;50.876;4.342;2023-06-14T12:59:32;26.80;67.50
17348;DHT22;8791;50.876;4.342;2023-06-14T13:02:13;26.80;67.90
17348;DHT22;8791;50.876;4.342;2023-06-14T13:04:40;26.80;67.80
17348;DHT22;8791;50.876;4.342;2023-06-14T13:07:07;26.80;66.40
17348;DHT22;8791;50.876;4.342;2023-06-14T13:09:34;26.90;67.30
17348;DHT22;8791;50.876;4.342;2023-06-14T13:12:01;26.90;66.00
17348;DHT22;8791;50.876;4.342;2023-06-14T13:14:28;27.00;64.30
17348;DHT22;8791;50.876;4.342;2023-06-14T13:16:55;26.90;65.00
17348;DHT22;8791;50.876;4.342;2023-06-14T13:19:38;26.80;66.70
17348;DHT22;8791;50.876;4.342;2023-06-14T13:22:05;27.00;66.90
17348;DHT22;8791;50.876;4.342;2023-06-14T13:24:33;26.90;67.00
17348;DHT22;8791;50.876;4.342;2023-06-14T13:27:00;26.90;66.70
17348;DHT22;8791;50.876;4.342;2023-06-14T13:29:27;26.80;65.90
17348;DHT22;8791;50.876;4.342;2023-06-14T13:31:54;26.80;66.40
17348;DHT22;8791;50.876;4.342;2023-06-14T13:34:21;26.90;66.90
17348;DHT22;8791;50.876;4.342;2023-06-14T13:36:49;27.10;66.40
17348;DHT22;8791;50.876;4.342;2023-06-14T13:39:16;27.30;63.80
17348;DHT22;8791;50.876;4.342;2023-06-14T13:41:43;27.10;62.40
17348;DHT22;8791;50.876;4.342;2023-06-14T13:44:10;26.90;63.00
17348;DHT22;8791;50.876;4.342;2023-06-14T13:46:39;26.90;62.80
17348;DHT22;8791;50.876;4.342;2023-06-14T13:49:08;26.80;63.60
17348;DHT22;8791;50.876;4.342;2023-06-14T13:51:35;26.90;63.40
17348;DHT22;8791;50.876;4.342;2023-06-14T13:54:04;26.90;63.00
17348;DHT22;8791;50.876;4.342;2023-06-14T13:56:31;27.10;63.60
17348;DHT22;8791;50.876;4.342;2023-06-14T13:58:57;27.20;63.40
17348;DHT22;8791;50.876;4.342;2023-06-14T14:01:25;27.00;62.10
17348;DHT22;8791;50.876;4.342;2023-06-14T14:03:54;26.90;61.60
17348;DHT22;8791;50.876;4.342;2023-06-14T14:06:21;26.90;61.50
17348;DHT22;8791;50.876;4.342;2023-06-14T14:08:47;26.90;61.10
17348;DHT22;8791;50.876;4.342;2023-06-14T14:11:16;27.00;61.10
17348;DHT22;8791;50.876;4.342;2023-06-14T14:13:43;26.90;59.90
17348;DHT22;8791;50.876;4.342;2023-06-14T14:16:11;26.90;61.30
17348;DHT22;8791;50.876;4.342;2023-06-14T14:18:38;26.80;61.10
17348;DHT22;8791;50.876;4.342;2023-06-14T14:21:05;26.90;61.70
17348;DHT22;8791;50.876;4.342;2023-06-14T14:23:32;26.90;61.90
17348;DHT22;8791;50.876;4.342;2023-06-14T14:25:59;27.00;60.60
17348;DHT22;8791;50.876;4.342;2023-06-14T14:28:28;26.90;60.10
17348;DHT22;8791;50.876;4.342;2023-06-14T14:30:54;26.90;60.00
17348;DHT22;8791;50.876;4.342;2023-06-14T14:33:21;27.10;61.20
17348;DHT22;8791;50.876;4.342;2023-06-14T14:35:48;27.20;60.30
17348;DHT22;8791;50.876;4.342;2023-06-14T14:38:15;27.20;59.70
17348;DHT22;8791;50.876;4.342;2023-06-14T14:40:42;27.30;58.80
17348;DHT22;8791;50.876;4.342;2023-06-14T14:43:14;27.10;58.90
17348;DHT22;8791;50.876;4.342;2023-06-14T14:45:42;27.20;58.50
17348;DHT22;8791;50.876;4.342;2023-06-14T14:48:09;27.20;59.00
17348;DHT22;8791;50.876;4.342;2023-06-14T14:50:36;27.30;58.80
17348;DHT22;8791;50.876;4.342;2023-06-14T14:53:03;27.30;58.60
17348;DHT22;8791;50.876;4.342;2023-06-14T14:55:30;27.20;58.50
17348;DHT22;8791;50.876;4.342;2023-06-14T14:57:57;27.30;58.00
17348;DHT22;8791;50.876;4.342;2023-06-14T15:00:24;27.40;57.30
17348;DHT22;8791;50.876;4.342;2023-06-14T15:02:53;27.30;56.90
17348;DHT22;8791;50.876;4.342;2023-06-14T15:05:20;27.20;57.40
17348;DHT22;8791;50.876;4.342;2023-06-14T15:07:50;27.20;57.90
17348;DHT22;8791;50.876;4.342;2023-06-14T15:10:17;27.20;57.50
17348;DHT22;8791;50.876;4.342;2023-06-14T15:12:44;27.30;57.20
17348;DHT22;8791;50.876;4.342;2023-06-14T15:15:11;27.70;55.80
17348;DHT22;8791;50.876;4.342;2023-06-14T15:17:37;28.80;55.70
17348;DHT22;8791;50.876;4.342;2023-06-14T15:20:07;29.70;53.70
17348;DHT22;8791;50.876;4.342;2023-06-14T15:22:34;29.70;53.90
17348;DHT22;8791;50.876;4.342;2023-06-14T15:25:01;30.10;53.40
17348;DHT22;8791;50.876;4.342;2023-06-14T15:27:31;30.30;53.00
17348;DHT22;8791;50.876;4.342;2023-06-14T15:30:00;30.80;52.40
17348;DHT22;8791;50.876;4.342;2023-06-14T15:32:27;30.90;51.20
17348;DHT22;8791;50.876;4.342;2023-06-14T15:34:54;30.70;51.10
17348;DHT22;8791;50.876;4.342;2023-06-14T15:37:22;30.90;50.70
17348;DHT22;8791;50.876;4.342;2023-06-14T15:39:49;30.70;50.80
17348;DHT22;8791;50.876;4.342;2023-06-14T15:42:16;30.50;51.60
17348;DHT22;8791;50.876;4.342;2023-06-14T15:44:49;30.50;52.30
17348;DHT22;8791;50.876;4.342;2023-06-14T15:47:18;30.90;52.30
17348;DHT22;8791;50.876;4.342;2023-06-14T15:49:45;30.80;52.90
17348;DHT22;8791;50.876;4.342;2023-06-14T15:52:12;30.70;52.30
17348;DHT22;8791;50.876;4.342;2023-06-14T15:54:40;30.80;52.50
17348;DHT22;8791;50.876;4.342;2023-06-14T15:57:07;30.50;52.40
17348;DHT22;8791;50.876;4.342;2023-06-14T15:59:35;30.60;52.50